sensor_id;sensor_type;location;lat;lon;timestamp;P1;durP1;ratioP1;P2;durP2;ratioP2
66485;SDS011;53303;47.476;8.084;2022-08-19T00:01:58;7.90;;;4.72;;
66485;SDS011;53303;47.476;8.084;2022-08-19T00:04:25;8.68;;;5.20;;
66485;SDS011;53303;47.476;8.084;2022-08-19T00:06:53;8.40;;;4.20;;
66485;SDS011;53303;47.476;8.084;2022-08-19T00:09:19;6.82;;;4.10;;
66485;SDS011;53303;47.476;8.084;2022-08-19T00:11:45;9.75;;;5.57;;
66485;SDS011;53303;47.476;8.084;2022-08-19T00:14:12;11.07;;;4.57;;
66485;SDS011;53303;47.476;8.084;2022-08-19T00:16:42;11.43;;;5.43;;
66485;SDS011;53303;47.476;8.084;2022-08-19T00:19:09;9.85;;;4.68;;
66485;SDS011;53303;47.476;8.084;2022-08-19T00:21:34;8.10;;;4.60;;
66485;SDS011;53303;47.476;8.084;2022-08-19T00:24:04;7.55;;;4.82;;
66485;SDS011;53303;47.476;8.084;2022-08-19T00:26:31;8.75;;;5.78;;
66485;SDS011;53303;47.476;8.084;2022-08-19T00:28:57;10.35;;;5.30;;
66485;SDS011;53303;47.476;8.084;2022-08-19T00:31:22;9.10;;;6.35;;
66485;SDS011;53303;47.476;8.084;2022-08-19T00:33:48;8.18;;;5.60;;
66485;SDS011;53303;47.476;8.084;2022-08-19T00:36:15;9.30;;;5.82;;
66485;SDS011;53303;47.476;8.084;2022-08-19T00:38:46;9.60;;;5.97;;
66485;SDS011;53303;47.476;8.084;2022-08-19T00:41:13;9.38;;;5.38;;
66485;SDS011;53303;47.476;8.084;2022-08-19T00:43:39;10.45;;;5.70;;
66485;SDS011;53303;47.476;8.084;2022-08-19T00:46:06;10.57;;;5.53;;
66485;SDS011;53303;47.476;8.084;2022-08-19T00:48:34;10.02;;;6.28;;
66485;SDS011;53303;47.476;8.084;2022-08-19T00:51:01;9.13;;;6.13;;
66485;SDS011;53303;47.476;8.084;2022-08-19T00:53:29;9.90;;;5.88;;
66485;SDS011;53303;47.476;8.084;2022-08-19T00:55:58;9.68;;;6.38;;
66485;SDS011;53303;47.476;8.084;2022-08-19T00:58:26;9.15;;;5.53;;
66485;SDS011;53303;47.476;8.084;2022-08-19T01:00:57;10.10;;;6.18;;
66485;SDS011;53303;47.476;8.084;2022-08-19T01:03:22;8.43;;;5.07;;
66485;SDS011;53303;47.476;8.084;2022-08-19T01:05:48;10.52;;;5.45;;
66485;SDS011;53303;47.476;8.084;2022-08-19T01:08:17;9.07;;;5.93;;
66485;SDS011;53303;47.476;8.084;2022-08-19T01:10:45;8.60;;;5.65;;
66485;SDS011;53303;47.476;8.084;2022-08-19T01:13:17;7.78;;;5.45;;
66485;SDS011;53303;47.476;8.084;2022-08-19T01:15:49;10.05;;;5.95;;
66485;SDS011;53303;47.476;8.084;2022-08-19T01:18:18;10.82;;;5.85;;
66485;SDS011;53303;47.476;8.084;2022-08-19T01:20:45;8.25;;;5.30;;
66485;SDS011;53303;47.476;8.084;2022-08-19T01:23:11;8.00;;;5.45;;
66485;SDS011;53303;47.476;8.084;2022-08-19T01:25:46;9.13;;;5.70;;
66485;SDS011;53303;47.476;8.084;2022-08-19T01:28:21;7.50;;;4.80;;
66485;SDS011;53303;47.476;8.084;2022-08-19T01:30:48;9.38;;;5.65;;
66485;SDS011;53303;47.476;8.084;2022-08-19T01:33:14;9.82;;;5.72;;
66485;SDS011;53303;47.476;8.084;2022-08-19T01:35:40;10.38;;;5.68;;
66485;SDS011;53303;47.476;8.084;2022-08-19T01:38:08;9.68;;;6.13;;
66485;SDS011;53303;47.476;8.084;2022-08-19T01:40:43;10.30;;;6.05;;
66485;SDS011;53303;47.476;8.084;2022-08-19T01:43:09;9.35;;;5.43;;
66485;SDS011;53303;47.476;8.084;2022-08-19T01:45:37;9.40;;;6.53;;
66485;SDS011;53303;47.476;8.084;2022-08-19T01:48:05;12.18;;;6.43;;
66485;SDS011;53303;47.476;8.084;2022-08-19T01:50:31;12.35;;;6.35;;
66485;SDS011;53303;47.476;8.084;2022-08-19T01:52:58;9.55;;;6.18;;
66485;SDS011;53303;47.476;8.084;2022-08-19T01:55:26;10.63;;;6.70;;
66485;SDS011;53303;47.476;8.084;2022-08-19T01:57:53;10.50;;;7.05;;
66485;SDS011;53303;47.476;8.084;2022-08-19T02:00:23;10.82;;;7.20;;
66485;SDS011;53303;47.476;8.084;2022-08-19T02:02:50;10.77;;;6.25;;
66485;SDS011;53303;47.476;8.084;2022-08-19T02:05:16;10.38;;;6.05;;
66485;SDS011;53303;47.476;8.084;2022-08-19T02:07:45;11.27;;;6.65;;
66485;SDS011;53303;47.476;8.084;2022-08-19T02:10:12;10.02;;;6.10;;
66485;SDS011;53303;47.476;8.084;2022-08-19T02:12:40;11.10;;;6.53;;
66485;SDS011;53303;47.476;8.084;2022-08-19T02:15:08;12.32;;;6.93;;
66485;SDS011;53303;47.476;8.084;2022-08-19T02:17:34;14.95;;;6.97;;
66485;SDS011;53303;47.476;8.084;2022-08-19T02:19:59;11.50;;;6.55;;
66485;SDS011;53303;47.476;8.084;2022-08-19T02:22:25;11.38;;;6.43;;
66485;SDS011;53303;47.476;8.084;2022-08-19T02:24:54;9.90;;;6.60;;
66485;SDS011;53303;47.476;8.084;2022-08-19T02:27:20;11.50;;;6.28;;
66485;SDS011;53303;47.476;8.084;2022-08-19T02:29:47;9.15;;;6.20;;
66485;SDS011;53303;47.476;8.084;2022-08-19T02:32:17;10.88;;;7.40;;
66485;SDS011;53303;47.476;8.084;2022-08-19T02:34:46;9.48;;;6.43;;
66485;SDS011;53303;47.476;8.084;2022-08-19T02:37:13;9.90;;;6.38;;
66485;SDS011;53303;47.476;8.084;2022-08-19T02:39:57;9.48;;;6.65;;
66485;SDS011;53303;47.476;8.084;2022-08-19T02:42:23;10.98;;;6.82;;
66485;SDS011;53303;47.476;8.084;2022-08-19T02:44:49;9.35;;;5.90;;
66485;SDS011;53303;47.476;8.084;2022-08-19T02:47:16;8.43;;;5.45;;
66485;SDS011;53303;47.476;8.084;2022-08-19T02:49:44;9.25;;;5.03;;
66485;SDS011;53303;47.476;8.084;2022-08-19T02:52:10;9.82;;;4.72;;
66485;SDS011;53303;47.476;8.084;2022-08-19T02:54:38;8.75;;;4.95;;
66485;SDS011;53303;47.476;8.084;2022-08-19T02:57:03;9.13;;;5.60;;
66485;SDS011;53303;47.476;8.084;2022-08-19T02:59:30;9.68;;;4.50;;
66485;SDS011;53303;47.476;8.084;2022-08-19T03:01:55;9.52;;;5.05;;
66485;SDS011;53303;47.476;8.084;2022-08-19T03:04:21;8.05;;;5.15;;
66485;SDS011;53303;47.476;8.084;2022-08-19T03:06:48;8.73;;;5.10;;
66485;SDS011;53303;47.476;8.084;2022-08-19T03:09:13;8.68;;;5.53;;
66485;SDS011;53303;47.476;8.084;2022-08-19T03:11:40;8.57;;;4.90;;
66485;SDS011;53303;47.476;8.084;2022-08-19T03:14:06;9.95;;;3.95;;
66485;SDS011;53303;47.476;8.084;2022-08-19T03:16:34;5.95;;;3.75;;
66485;SDS011;53303;47.476;8.084;2022-08-19T03:19:05;6.43;;;3.97;;
66485;SDS011;53303;47.476;8.084;2022-08-19T03:21:32;6.97;;;4.00;;
66485;SDS011;53303;47.476;8.084;2022-08-19T03:23:59;6.75;;;3.88;;
66485;SDS011;53303;47.476;8.084;2022-08-19T03:26:27;6.40;;;3.63;;
66485;SDS011;53303;47.476;8.084;2022-08-19T03:28:53;7.15;;;3.78;;
66485;SDS011;53303;47.476;8.084;2022-08-19T03:31:19;6.38;;;3.40;;
66485;SDS011;53303;47.476;8.084;2022-08-19T03:33:47;6.70;;;3.78;;
66485;SDS011;53303;47.476;8.084;2022-08-19T03:36:24;8.32;;;3.63;;
66485;SDS011;53303;47.476;8.084;2022-08-19T03:38:52;6.32;;;3.03;;
66485;SDS011;53303;47.476;8.084;2022-08-19T03:41:23;6.57;;;3.58;;
66485;SDS011;53303;47.476;8.084;2022-08-19T03:43:50;6.03;;;3.47;;
66485;SDS011;53303;47.476;8.084;2022-08-19T03:46:19;6.18;;;3.53;;
66485;SDS011;53303;47.476;8.084;2022-08-19T03:48:52;5.63;;;3.13;;
66485;SDS011;53303;47.476;8.084;2022-08-19T03:51:21;6.70;;;3.42;;
66485;SDS011;53303;47.476;8.084;2022-08-19T03:53:47;6.50;;;3.63;;
66485;SDS011;53303;47.476;8.084;2022-08-19T03:56:13;7.20;;;3.72;;
66485;SDS011;53303;47.476;8.084;2022-08-19T03:58:40;6.38;;;3.30;;
66485;SDS011;53303;47.476;8.084;2022-08-19T04:01:07;7.57;;;3.00;;
66485;SDS011;53303;47.476;8.084;2022-08-19T04:03:36;7.55;;;3.53;;
66485;SDS011;53303;47.476;8.084;2022-08-19T04:06:12;10.02;;;3.85;;
66485;SDS011;53303;47.476;8.084;2022-08-19T04:08:42;9.73;;;3.58;;
66485;SDS011;53303;47.476;8.084;2022-08-19T04:11:09;10.65;;;3.75;;
66485;SDS011;53303;47.476;8.084;2022-08-19T04:13:40;8.75;;;3.70;;
66485;SDS011;53303;47.476;8.084;2022-08-19T04:16:09;7.25;;;3.28;;
66485;SDS011;53303;47.476;8.084;2022-08-19T04:18:39;6.35;;;3.70;;
66485;SDS011;53303;47.476;8.084;2022-08-19T04:21:05;8.48;;;3.85;;
66485;SDS011;53303;47.476;8.084;2022-08-19T04:23:32;6.30;;;3.63;;
66485;SDS011;53303;47.476;8.084;2022-08-19T04:25:59;6.18;;;3.70;;
66485;SDS011;53303;47.476;8.084;2022-08-19T04:28:24;7.22;;;3.80;;
66485;SDS011;53303;47.476;8.084;2022-08-19T04:30:54;6.82;;;4.05;;
66485;SDS011;53303;47.476;8.084;2022-08-19T04:33:21;5.90;;;3.50;;
66485;SDS011;53303;47.476;8.084;2022-08-19T04:35:49;7.60;;;3.63;;
66485;SDS011;53303;47.476;8.084;2022-08-19T04:38:19;6.20;;;3.42;;
66485;SDS011;53303;47.476;8.084;2022-08-19T04:40:47;9.15;;;3.63;;
66485;SDS011;53303;47.476;8.084;2022-08-19T04:43:34;6.93;;;3.13;;
66485;SDS011;53303;47.476;8.084;2022-08-19T04:46:08;7.40;;;3.33;;
66485;SDS011;53303;47.476;8.084;2022-08-19T04:48:36;5.32;;;3.25;;
66485;SDS011;53303;47.476;8.084;2022-08-19T04:51:05;5.70;;;3.22;;
66485;SDS011;53303;47.476;8.084;2022-08-19T04:53:36;5.55;;;3.33;;
66485;SDS011;53303;47.476;8.084;2022-08-19T04:56:04;5.25;;;2.92;;
66485;SDS011;53303;47.476;8.084;2022-08-19T04:58:35;5.45;;;3.17;;
66485;SDS011;53303;47.476;8.084;2022-08-19T05:01:01;4.82;;;2.85;;
66485;SDS011;53303;47.476;8.084;2022-08-19T05:03:27;6.20;;;3.05;;
66485;SDS011;53303;47.476;8.084;2022-08-19T05:05:58;6.70;;;3.03;;
66485;SDS011;53303;47.476;8.084;2022-08-19T05:08:35;7.25;;;3.78;;
66485;SDS011;53303;47.476;8.084;2022-08-19T05:11:06;10.48;;;3.50;;
66485;SDS011;53303;47.476;8.084;2022-08-19T05:13:34;5.07;;;3.10;;
66485;SDS011;53303;47.476;8.084;2022-08-19T05:16:00;7.60;;;3.60;;
66485;SDS011;53303;47.476;8.084;2022-08-19T05:18:25;5.97;;;3.30;;
66485;SDS011;53303;47.476;8.084;2022-08-19T05:21:11;9.18;;;3.45;;
66485;SDS011;53303;47.476;8.084;2022-08-19T05:24:05;6.03;;;3.38;;
66485;SDS011;53303;47.476;8.084;2022-08-19T05:26:37;7.47;;;4.00;;
66485;SDS011;53303;47.476;8.084;2022-08-19T05:29:04;6.40;;;3.63;;
66485;SDS011;53303;47.476;8.084;2022-08-19T05:31:30;5.70;;;3.22;;
66485;SDS011;53303;47.476;8.084;2022-08-19T05:33:56;5.25;;;3.25;;
66485;SDS011;53303;47.476;8.084;2022-08-19T05:36:26;7.18;;;3.65;;
66485;SDS011;53303;47.476;8.084;2022-08-19T05:38:53;6.25;;;3.22;;
66485;SDS011;53303;47.476;8.084;2022-08-19T05:41:19;8.63;;;3.38;;
66485;SDS011;53303;47.476;8.084;2022-08-19T05:43:46;10.10;;;4.18;;
66485;SDS011;53303;47.476;8.084;2022-08-19T05:46:20;5.78;;;3.40;;
66485;SDS011;53303;47.476;8.084;2022-08-19T05:48:47;5.70;;;3.28;;
66485;SDS011;53303;47.476;8.084;2022-08-19T05:51:14;6.53;;;3.28;;
66485;SDS011;53303;47.476;8.084;2022-08-19T05:53:41;5.97;;;3.60;;
66485;SDS011;53303;47.476;8.084;2022-08-19T05:56:08;8.40;;;3.60;;
66485;SDS011;53303;47.476;8.084;2022-08-19T05:58:36;6.50;;;3.97;;
66485;SDS011;53303;47.476;8.084;2022-08-19T06:01:10;8.40;;;3.47;;
66485;SDS011;53303;47.476;8.084;2022-08-19T06:03:38;8.32;;;3.88;;
66485;SDS011;53303;47.476;8.084;2022-08-19T06:06:04;5.50;;;3.53;;
66485;SDS011;53303;47.476;8.084;2022-08-19T06:08:32;6.40;;;3.88;;
66485;SDS011;53303;47.476;8.084;2022-08-19T06:10:58;6.18;;;3.50;;
66485;SDS011;53303;47.476;8.084;2022-08-19T06:13:42;6.22;;;3.72;;
66485;SDS011;53303;47.476;8.084;2022-08-19T06:16:08;7.00;;;3.65;;
66485;SDS011;53303;47.476;8.084;2022-08-19T06:18:34;4.72;;;3.13;;
66485;SDS011;53303;47.476;8.084;2022-08-19T06:20:59;6.00;;;3.60;;
66485;SDS011;53303;47.476;8.084;2022-08-19T06:23:28;5.90;;;3.40;;
66485;SDS011;53303;47.476;8.084;2022-08-19T06:25:54;6.72;;;3.50;;
66485;SDS011;53303;47.476;8.084;2022-08-19T06:28:19;7.03;;;3.80;;
66485;SDS011;53303;47.476;8.084;2022-08-19T06:30:49;6.47;;;3.47;;
66485;SDS011;53303;47.476;8.084;2022-08-19T06:33:16;6.50;;;3.70;;
66485;SDS011;53303;47.476;8.084;2022-08-19T06:35:41;8.93;;;4.55;;
66485;SDS011;53303;47.476;8.084;2022-08-19T06:38:09;7.00;;;3.75;;
66485;SDS011;53303;47.476;8.084;2022-08-19T06:40:35;6.75;;;3.45;;
66485;SDS011;53303;47.476;8.084;2022-08-19T06:43:03;6.65;;;3.25;;
66485;SDS011;53303;47.476;8.084;2022-08-19T06:45:28;8.52;;;3.92;;
66485;SDS011;53303;47.476;8.084;2022-08-19T06:47:55;6.40;;;3.80;;
66485;SDS011;53303;47.476;8.084;2022-08-19T06:50:21;8.68;;;4.10;;
66485;SDS011;53303;47.476;8.084;2022-08-19T06:52:47;7.78;;;4.38;;
66485;SDS011;53303;47.476;8.084;2022-08-19T06:55:14;8.98;;;3.95;;
66485;SDS011;53303;47.476;8.084;2022-08-19T06:57:40;7.85;;;3.78;;
66485;SDS011;53303;47.476;8.084;2022-08-19T07:00:07;9.23;;;4.57;;
66485;SDS011;53303;47.476;8.084;2022-08-19T07:05:05;6.57;;;3.92;;
66485;SDS011;53303;47.476;8.084;2022-08-19T07:07:31;7.35;;;4.35;;
66485;SDS011;53303;47.476;8.084;2022-08-19T07:09:58;9.85;;;3.80;;
66485;SDS011;53303;47.476;8.084;2022-08-19T07:12:27;7.95;;;4.32;;
66485;SDS011;53303;47.476;8.084;2022-08-19T07:14:56;7.15;;;4.03;;
66485;SDS011;53303;47.476;8.084;2022-08-19T07:17:22;7.13;;;3.88;;
66485;SDS011;53303;47.476;8.084;2022-08-19T07:19:48;7.45;;;4.25;;
66485;SDS011;53303;47.476;8.084;2022-08-19T07:22:15;6.30;;;4.07;;
66485;SDS011;53303;47.476;8.084;2022-08-19T07:24:40;6.82;;;3.85;;
66485;SDS011;53303;47.476;8.084;2022-08-19T07:27:06;7.18;;;4.20;;
66485;SDS011;53303;47.476;8.084;2022-08-19T07:29:33;6.63;;;4.28;;
66485;SDS011;53303;47.476;8.084;2022-08-19T07:32:00;9.38;;;5.05;;
66485;SDS011;53303;47.476;8.084;2022-08-19T07:34:27;9.77;;;4.40;;
66485;SDS011;53303;47.476;8.084;2022-08-19T07:36:55;8.27;;;4.35;;
66485;SDS011;53303;47.476;8.084;2022-08-19T07:39:23;9.95;;;5.15;;
66485;SDS011;53303;47.476;8.084;2022-08-19T07:41:54;6.10;;;4.18;;
66485;SDS011;53303;47.476;8.084;2022-08-19T07:44:21;8.52;;;5.00;;
66485;SDS011;53303;47.476;8.084;2022-08-19T07:46:48;10.00;;;5.47;;
66485;SDS011;53303;47.476;8.084;2022-08-19T07:49:17;7.40;;;4.68;;
66485;SDS011;53303;47.476;8.084;2022-08-19T07:51:45;7.75;;;4.53;;
66485;SDS011;53303;47.476;8.084;2022-08-19T07:54:12;8.55;;;5.10;;
66485;SDS011;53303;47.476;8.084;2022-08-19T07:56:40;7.65;;;5.07;;
66485;SDS011;53303;47.476;8.084;2022-08-19T07:59:06;7.18;;;4.93;;
66485;SDS011;53303;47.476;8.084;2022-08-19T08:01:32;8.20;;;5.00;;
66485;SDS011;53303;47.476;8.084;2022-08-19T08:03:58;9.23;;;5.28;;
66485;SDS011;53303;47.476;8.084;2022-08-19T08:06:42;9.65;;;5.82;;
66485;SDS011;53303;47.476;8.084;2022-08-19T08:09:31;8.85;;;5.25;;
66485;SDS011;53303;47.476;8.084;2022-08-19T08:12:02;8.35;;;5.60;;
66485;SDS011;53303;47.476;8.084;2022-08-19T08:14:39;8.38;;;5.68;;
66485;SDS011;53303;47.476;8.084;2022-08-19T08:17:13;8.63;;;5.53;;
66485;SDS011;53303;47.476;8.084;2022-08-19T08:19:41;9.50;;;5.85;;
66485;SDS011;53303;47.476;8.084;2022-08-19T08:22:07;9.80;;;6.38;;
66485;SDS011;53303;47.476;8.084;2022-08-19T08:24:55;10.93;;;6.05;;
66485;SDS011;53303;47.476;8.084;2022-08-19T08:27:23;10.55;;;7.18;;
66485;SDS011;53303;47.476;8.084;2022-08-19T08:29:49;11.23;;;6.50;;
66485;SDS011;53303;47.476;8.084;2022-08-19T08:32:14;10.20;;;6.53;;
66485;SDS011;53303;47.476;8.084;2022-08-19T08:34:40;9.90;;;7.03;;
66485;SDS011;53303;47.476;8.084;2022-08-19T08:37:05;10.15;;;6.32;;
66485;SDS011;53303;47.476;8.084;2022-08-19T08:39:30;10.80;;;7.50;;
66485;SDS011;53303;47.476;8.084;2022-08-19T08:42:19;14.23;;;7.88;;
66485;SDS011;53303;47.476;8.084;2022-08-19T08:44:53;11.07;;;7.18;;
66485;SDS011;53303;47.476;8.084;2022-08-19T08:47:25;10.82;;;7.32;;
66485;SDS011;53303;47.476;8.084;2022-08-19T08:49:58;11.68;;;8.00;;
66485;SDS011;53303;47.476;8.084;2022-08-19T08:52:29;13.38;;;7.85;;
66485;SDS011;53303;47.476;8.084;2022-08-19T08:55:00;9.98;;;7.55;;
66485;SDS011;53303;47.476;8.084;2022-08-19T08:59:58;10.80;;;7.57;;
66485;SDS011;53303;47.476;8.084;2022-08-19T09:02:29;10.57;;;8.00;;
66485;SDS011;53303;47.476;8.084;2022-08-19T09:04:54;12.23;;;8.32;;
66485;SDS011;53303;47.476;8.084;2022-08-19T09:09:49;10.10;;;8.30;;
66485;SDS011;53303;47.476;8.084;2022-08-19T09:15:10;11.52;;;7.55;;
66485;SDS011;53303;47.476;8.084;2022-08-19T09:17:41;11.20;;;8.38;;
66485;SDS011;53303;47.476;8.084;2022-08-19T09:22:38;13.25;;;8.05;;
66485;SDS011;53303;47.476;8.084;2022-08-19T09:25:09;11.82;;;8.15;;
66485;SDS011;53303;47.476;8.084;2022-08-19T09:27:36;14.27;;;8.68;;
66485;SDS011;53303;47.476;8.084;2022-08-19T09:30:04;13.82;;;8.60;;
66485;SDS011;53303;47.476;8.084;2022-08-19T09:32:30;12.32;;;8.10;;
66485;SDS011;53303;47.476;8.084;2022-08-19T09:34:56;14.80;;;9.27;;
66485;SDS011;53303;47.476;8.084;2022-08-19T09:37:25;12.95;;;9.02;;
66485;SDS011;53303;47.476;8.084;2022-08-19T09:39:51;13.45;;;8.40;;
66485;SDS011;53303;47.476;8.084;2022-08-19T09:42:17;13.25;;;8.60;;
66485;SDS011;53303;47.476;8.084;2022-08-19T09:44:43;13.68;;;9.77;;
66485;SDS011;53303;47.476;8.084;2022-08-19T09:47:09;13.40;;;9.20;;
66485;SDS011;53303;47.476;8.084;2022-08-19T09:49:37;14.82;;;9.48;;
66485;SDS011;53303;47.476;8.084;2022-08-19T09:52:04;12.43;;;8.32;;
66485;SDS011;53303;47.476;8.084;2022-08-19T09:54:30;12.35;;;8.63;;
66485;SDS011;53303;47.476;8.084;2022-08-19T09:56:58;12.38;;;9.00;;
66485;SDS011;53303;47.476;8.084;2022-08-19T09:59:25;12.00;;;8.88;;
66485;SDS011;53303;47.476;8.084;2022-08-19T10:01:50;12.88;;;8.90;;
66485;SDS011;53303;47.476;8.084;2022-08-19T10:04:16;16.85;;;9.80;;
66485;SDS011;53303;47.476;8.084;2022-08-19T10:06:42;12.70;;;9.57;;
66485;SDS011;53303;47.476;8.084;2022-08-19T10:09:08;11.82;;;8.98;;
66485;SDS011;53303;47.476;8.084;2022-08-19T10:11:36;12.70;;;9.07;;
66485;SDS011;53303;47.476;8.084;2022-08-19T10:14:04;15.25;;;9.35;;
66485;SDS011;53303;47.476;8.084;2022-08-19T10:16:33;12.38;;;8.65;;
66485;SDS011;53303;47.476;8.084;2022-08-19T10:19:01;14.13;;;9.43;;
66485;SDS011;53303;47.476;8.084;2022-08-19T10:21:30;14.30;;;9.48;;
66485;SDS011;53303;47.476;8.084;2022-08-19T10:23:58;14.73;;;8.85;;
66485;SDS011;53303;47.476;8.084;2022-08-19T10:26:29;15.15;;;9.10;;
66485;SDS011;53303;47.476;8.084;2022-08-19T10:28:57;11.52;;;8.52;;
66485;SDS011;53303;47.476;8.084;2022-08-19T10:31:24;14.43;;;9.32;;
66485;SDS011;53303;47.476;8.084;2022-08-19T10:33:51;12.80;;;9.27;;
66485;SDS011;53303;47.476;8.084;2022-08-19T10:36:24;13.68;;;9.27;;
66485;SDS011;53303;47.476;8.084;2022-08-19T10:38:54;13.50;;;9.05;;
66485;SDS011;53303;47.476;8.084;2022-08-19T10:41:24;12.13;;;8.30;;
66485;SDS011;53303;47.476;8.084;2022-08-19T10:43:52;11.77;;;8.85;;
66485;SDS011;53303;47.476;8.084;2022-08-19T10:46:19;14.30;;;9.00;;
66485;SDS011;53303;47.476;8.084;2022-08-19T10:48:47;12.27;;;8.38;;
66485;SDS011;53303;47.476;8.084;2022-08-19T10:51:15;12.73;;;8.85;;
66485;SDS011;53303;47.476;8.084;2022-08-19T10:54:00;12.27;;;8.70;;
66485;SDS011;53303;47.476;8.084;2022-08-19T10:56:26;12.98;;;8.27;;
66485;SDS011;53303;47.476;8.084;2022-08-19T10:59:11;10.70;;;7.82;;
66485;SDS011;53303;47.476;8.084;2022-08-19T11:01:40;13.63;;;8.45;;
66485;SDS011;53303;47.476;8.084;2022-08-19T11:04:07;12.95;;;8.52;;
66485;SDS011;53303;47.476;8.084;2022-08-19T11:06:38;12.07;;;7.78;;
66485;SDS011;53303;47.476;8.084;2022-08-19T11:09:08;11.80;;;7.88;;
66485;SDS011;53303;47.476;8.084;2022-08-19T11:11:35;12.20;;;8.07;;
66485;SDS011;53303;47.476;8.084;2022-08-19T11:14:05;11.13;;;7.35;;
66485;SDS011;53303;47.476;8.084;2022-08-19T11:16:37;14.32;;;8.30;;
66485;SDS011;53303;47.476;8.084;2022-08-19T11:19:04;18.90;;;7.95;;
66485;SDS011;53303;47.476;8.084;2022-08-19T11:21:33;16.13;;;7.95;;
66485;SDS011;53303;47.476;8.084;2022-08-19T11:24:04;13.75;;;7.47;;
66485;SDS011;53303;47.476;8.084;2022-08-19T11:26:34;15.43;;;8.05;;
66485;SDS011;53303;47.476;8.084;2022-08-19T11:29:01;17.00;;;7.63;;
66485;SDS011;53303;47.476;8.084;2022-08-19T11:31:29;11.65;;;7.40;;
66485;SDS011;53303;47.476;8.084;2022-08-19T11:34:00;13.20;;;7.60;;
66485;SDS011;53303;47.476;8.084;2022-08-19T11:36:27;14.20;;;8.55;;
66485;SDS011;53303;47.476;8.084;2022-08-19T11:38:57;14.80;;;7.85;;
66485;SDS011;53303;47.476;8.084;2022-08-19T11:41:23;15.88;;;7.53;;
66485;SDS011;53303;47.476;8.084;2022-08-19T11:43:52;14.30;;;7.47;;
66485;SDS011;53303;47.476;8.084;2022-08-19T11:46:20;15.43;;;7.78;;
66485;SDS011;53303;47.476;8.084;2022-08-19T11:48:47;19.88;;;9.30;;
66485;SDS011;53303;47.476;8.084;2022-08-19T11:51:16;14.13;;;8.20;;
66485;SDS011;53303;47.476;8.084;2022-08-19T11:53:44;16.08;;;8.25;;
66485;SDS011;53303;47.476;8.084;2022-08-19T11:56:10;14.57;;;7.95;;
66485;SDS011;53303;47.476;8.084;2022-08-19T11:58:36;42.58;;;9.70;;
66485;SDS011;53303;47.476;8.084;2022-08-19T12:01:06;77.50;;;12.48;;
66485;SDS011;53303;47.476;8.084;2022-08-19T12:03:42;104.00;;;15.65;;
66485;SDS011;53303;47.476;8.084;2022-08-19T12:06:10;168.27;;;21.52;;
66485;SDS011;53303;47.476;8.084;2022-08-19T12:08:39;265.15;;;30.33;;
66485;SDS011;53303;47.476;8.084;2022-08-19T12:11:05;242.57;;;29.30;;
66485;SDS011;53303;47.476;8.084;2022-08-19T12:13:33;236.30;;;28.33;;
66485;SDS011;53303;47.476;8.084;2022-08-19T12:15:59;210.98;;;27.58;;
66485;SDS011;53303;47.476;8.084;2022-08-19T12:18:25;193.15;;;24.70;;
66485;SDS011;53303;47.476;8.084;2022-08-19T12:20:51;168.88;;;23.02;;
66485;SDS011;53303;47.476;8.084;2022-08-19T12:23:19;158.63;;;21.40;;
66485;SDS011;53303;47.476;8.084;2022-08-19T12:25:46;166.02;;;23.63;;
66485;SDS011;53303;47.476;8.084;2022-08-19T12:28:20;122.22;;;21.13;;
66485;SDS011;53303;47.476;8.084;2022-08-19T12:30:48;94.95;;;19.85;;
66485;SDS011;53303;47.476;8.084;2022-08-19T12:33:15;114.43;;;18.20;;
66485;SDS011;53303;47.476;8.084;2022-08-19T12:35:41;82.10;;;14.57;;
66485;SDS011;53303;47.476;8.084;2022-08-19T12:38:09;80.78;;;13.07;;
66485;SDS011;53303;47.476;8.084;2022-08-19T12:40:35;62.35;;;11.15;;
66485;SDS011;53303;47.476;8.084;2022-08-19T12:43:00;40.05;;;10.35;;
66485;SDS011;53303;47.476;8.084;2022-08-19T12:45:25;47.08;;;10.73;;
66485;SDS011;53303;47.476;8.084;2022-08-19T12:47:51;25.10;;;9.35;;
66485;SDS011;53303;47.476;8.084;2022-08-19T12:50:18;27.63;;;8.73;;
66485;SDS011;53303;47.476;8.084;2022-08-19T12:52:44;18.05;;;8.70;;
66485;SDS011;53303;47.476;8.084;2022-08-19T12:55:09;33.60;;;10.25;;
66485;SDS011;53303;47.476;8.084;2022-08-19T12:57:36;23.20;;;10.73;;
66485;SDS011;53303;47.476;8.084;2022-08-19T13:00:04;14.55;;;4.93;;
66485;SDS011;53303;47.476;8.084;2022-08-19T13:02:35;14.55;;;4.65;;
66485;SDS011;53303;47.476;8.084;2022-08-19T13:05:04;10.25;;;3.90;;
66485;SDS011;53303;47.476;8.084;2022-08-19T13:07:33;9.05;;;5.28;;
66485;SDS011;53303;47.476;8.084;2022-08-19T13:09:59;14.20;;;4.57;;
66485;SDS011;53303;47.476;8.084;2022-08-19T13:12:26;15.38;;;5.85;;
66485;SDS011;53303;47.476;8.084;2022-08-19T13:14:55;14.00;;;6.63;;
66485;SDS011;53303;47.476;8.084;2022-08-19T13:17:21;15.98;;;5.68;;
66485;SDS011;53303;47.476;8.084;2022-08-19T13:19:47;15.35;;;7.13;;
66485;SDS011;53303;47.476;8.084;2022-08-19T13:22:12;16.35;;;7.60;;
66485;SDS011;53303;47.476;8.084;2022-08-19T13:24:40;11.40;;;5.78;;
66485;SDS011;53303;47.476;8.084;2022-08-19T13:27:06;13.10;;;6.00;;
66485;SDS011;53303;47.476;8.084;2022-08-19T13:29:32;13.02;;;6.22;;
66485;SDS011;53303;47.476;8.084;2022-08-19T13:35:00;11.57;;;6.15;;
66485;SDS011;53303;47.476;8.084;2022-08-19T13:37:26;11.80;;;5.93;;
66485;SDS011;53303;47.476;8.084;2022-08-19T13:40:10;13.10;;;7.13;;
66485;SDS011;53303;47.476;8.084;2022-08-19T13:42:43;9.63;;;5.80;;
66485;SDS011;53303;47.476;8.084;2022-08-19T13:45:13;10.45;;;5.97;;
66485;SDS011;53303;47.476;8.084;2022-08-19T13:47:44;10.30;;;5.75;;
66485;SDS011;53303;47.476;8.084;2022-08-19T13:50:12;10.85;;;6.50;;
66485;SDS011;53303;47.476;8.084;2022-08-19T13:52:41;11.43;;;5.45;;
66485;SDS011;53303;47.476;8.084;2022-08-19T13:55:07;17.27;;;6.30;;
66485;SDS011;53303;47.476;8.084;2022-08-19T13:57:34;10.82;;;5.43;;
66485;SDS011;53303;47.476;8.084;2022-08-19T14:00:06;10.82;;;5.75;;
66485;SDS011;53303;47.476;8.084;2022-08-19T14:02:36;11.05;;;6.25;;
66485;SDS011;53303;47.476;8.084;2022-08-19T14:05:03;11.35;;;6.15;;
66485;SDS011;53303;47.476;8.084;2022-08-19T14:07:30;10.77;;;5.25;;
66485;SDS011;53303;47.476;8.084;2022-08-19T14:09:56;10.73;;;6.03;;
66485;SDS011;53303;47.476;8.084;2022-08-19T14:12:21;12.13;;;6.03;;
66485;SDS011;53303;47.476;8.084;2022-08-19T14:14:47;10.07;;;5.28;;
66485;SDS011;53303;47.476;8.084;2022-08-19T14:17:13;11.85;;;5.75;;
66485;SDS011;53303;47.476;8.084;2022-08-19T14:19:38;10.07;;;5.25;;
66485;SDS011;53303;47.476;8.084;2022-08-19T14:22:06;11.00;;;5.47;;
66485;SDS011;53303;47.476;8.084;2022-08-19T14:24:31;9.60;;;5.25;;
66485;SDS011;53303;47.476;8.084;2022-08-19T14:26:57;13.18;;;5.22;;
66485;SDS011;53303;47.476;8.084;2022-08-19T14:29:23;8.98;;;5.28;;
66485;SDS011;53303;47.476;8.084;2022-08-19T14:31:48;11.32;;;5.50;;
66485;SDS011;53303;47.476;8.084;2022-08-19T14:34:14;9.98;;;5.25;;
66485;SDS011;53303;47.476;8.084;2022-08-19T14:36:39;12.10;;;5.30;;
66485;SDS011;53303;47.476;8.084;2022-08-19T14:39:07;10.07;;;5.32;;
66485;SDS011;53303;47.476;8.084;2022-08-19T14:41:33;9.80;;;5.28;;
66485;SDS011;53303;47.476;8.084;2022-08-19T14:43:59;10.38;;;5.28;;
66485;SDS011;53303;47.476;8.084;2022-08-19T14:46:26;10.00;;;5.63;;
66485;SDS011;53303;47.476;8.084;2022-08-19T14:48:53;11.50;;;5.25;;
66485;SDS011;53303;47.476;8.084;2022-08-19T14:51:21;10.63;;;5.35;;
66485;SDS011;53303;47.476;8.084;2022-08-19T14:53:48;10.20;;;5.25;;
66485;SDS011;53303;47.476;8.084;2022-08-19T14:56:15;12.23;;;5.75;;
66485;SDS011;53303;47.476;8.084;2022-08-19T14:58:43;12.43;;;5.80;;
66485;SDS011;53303;47.476;8.084;2022-08-19T15:01:09;9.43;;;5.22;;
66485;SDS011;53303;47.476;8.084;2022-08-19T15:03:36;8.88;;;5.43;;